地図

経路データ

SID SEASON NUMBER BASIN SUBBASIN NAME ISO_TIME NATURE LAT LON WMO_WIND WMO_PRES WMO_AGENCY TRACK_TYPE DIST2LAND LANDFALL IFLAG USA_AGENCY USA_ATCF_ID USA_LAT USA_LON USA_RECORD USA_STATUS USA_WIND USA_PRES USA_SSHS USA_R34_NE USA_R34_SE USA_R34_SW USA_R34_NW USA_R50_NE USA_R50_SE USA_R50_SW USA_R50_NW USA_R64_NE USA_R64_SE USA_R64_SW USA_R64_NW USA_POCI USA_ROCI USA_RMW USA_EYE TOKYO_LAT TOKYO_LON TOKYO_GRADE TOKYO_WIND TOKYO_PRES TOKYO_R50_DIR TOKYO_R50_LONG TOKYO_R50_SHORT TOKYO_R30_DIR TOKYO_R30_LONG TOKYO_R30_SHORT TOKYO_LAND CMA_LAT CMA_LON CMA_CAT CMA_WIND CMA_PRES HKO_LAT HKO_LON HKO_CAT HKO_WIND HKO_PRES NEWDELHI_LAT NEWDELHI_LON NEWDELHI_GRADE NEWDELHI_WIND NEWDELHI_PRES NEWDELHI_CI NEWDELHI_DP NEWDELHI_POCI REUNION_LAT REUNION_LON REUNION_TYPE REUNION_WIND REUNION_PRES REUNION_TNUM REUNION_CI REUNION_RMW REUNION_R34_NE REUNION_R34_SE REUNION_R34_SW REUNION_R34_NW REUNION_R50_NE REUNION_R50_SE REUNION_R50_SW REUNION_R50_NW REUNION_R64_NE REUNION_R64_SE REUNION_R64_SW REUNION_R64_NW BOM_LAT BOM_LON BOM_TYPE BOM_WIND BOM_PRES BOM_TNUM BOM_CI BOM_RMW BOM_R34_NE BOM_R34_SE BOM_R34_SW BOM_R34_NW BOM_R50_NE BOM_R50_SE BOM_R50_SW BOM_R50_NW BOM_R64_NE BOM_R64_SE BOM_R64_SW BOM_R64_NW BOM_ROCI BOM_POCI BOM_EYE BOM_POS_METHOD BOM_PRES_METHOD NADI_LAT NADI_LON NADI_CAT NADI_WIND NADI_PRES WELLINGTON_LAT WELLINGTON_LON WELLINGTON_WIND WELLINGTON_PRES DS824_LAT DS824_LON DS824_STAGE DS824_WIND DS824_PRES TD9636_LAT TD9636_LON TD9636_STAGE TD9636_WIND TD9636_PRES TD9635_LAT TD9635_LON TD9635_WIND TD9635_PRES TD9635_ROCI NEUMANN_LAT NEUMANN_LON NEUMANN_CLASS NEUMANN_WIND NEUMANN_PRES MLC_LAT MLC_LON MLC_CLASS MLC_WIND MLC_PRES USA_GUST BOM_GUST BOM_GUST_PER REUNION_GUST REUNION_GUST_PER USA_SEAHGT USA_SEARAD_NE USA_SEARAD_SE USA_SEARAD_SW USA_SEARAD_NW STORM_SPEED STORM_DIR
1862255N26286 1862 21 NA NA NOT_NAMED 1862-09-12 00:00:00 TS 25.8000 -73.8000 main 418 375 _____________O -1 25.8000 -73.8000 TS 40 10 287
1862255N26286 1862 21 NA NA NOT_NAMED 1862-09-12 03:00:00 TS 25.9504 -74.3497 main 380 329 _____________P -1 25.9504 -74.3497 TS 40 10 287
1862255N26286 1862 21 NA NA NOT_NAMED 1862-09-12 06:00:00 TS 26.1000 -74.9000 main 329 287 _____________O -1 26.1000 -74.9000 TS 40 10 287
1862255N26286 1862 21 NA NA NOT_NAMED 1862-09-12 09:00:00 TS 26.2498 -75.4501 main 278 247 _____________P -1 26.2498 -75.4501 TS 42 10 287
1862255N26286 1862 21 NA NA NOT_NAMED 1862-09-12 12:00:00 TS 26.4000 -76.0000 main 247 216 _____________O -1 26.4000 -76.0000 TS 45 10 287
1862255N26286 1862 21 NA NA NOT_NAMED 1862-09-12 15:00:00 TS 26.5498 -76.5501 main 209 200 _____________P -1 26.5498 -76.5501 TS 45 10 287
1862255N26286 1862 21 NA NA NOT_NAMED 1862-09-12 18:00:00 TS 26.7000 -77.1000 main 200 191 _____________O -1 26.7000 -77.1000 TS 45 10 287
1862255N26286 1862 21 NA NA NOT_NAMED 1862-09-12 21:00:00 TS 26.8423 -77.6503 main 192 179 _____________P -1 26.8423 -77.6503 TS 47 10 287
1862255N26286 1862 21 NA NA NOT_NAMED 1862-09-13 00:00:00 TS 27.0000 -78.2000 main 179 136 _____________O -1 27.0000 -78.2000 TS 50 10 290
1862255N26286 1862 21 NA NA NOT_NAMED 1862-09-13 03:00:00 TS 27.1998 -78.7500 main 136 90 _____________P -1 27.1998 -78.7500 TS 50 11 292
1862255N26286 1862 21 NA NA NOT_NAMED 1862-09-13 06:00:00 TS 27.4000 -79.3000 main 90 50 _____________O -1 27.4000 -79.3000 TS 50 11 290
1862255N26286 1862 21 NA NA NOT_NAMED 1862-09-13 09:00:00 TS 27.5651 -79.8801 main 45 9 _____________P -1 27.5651 -79.8801 TS 52 10 287
1862255N26286 1862 21 NA NA NOT_NAMED 1862-09-13 12:00:00 TS 27.7000 -80.4000 main 9 0 _____________O -1 27.7000 -80.4000 TS 55 8 287
1862255N26286 1862 21 NA NA NOT_NAMED 1862-09-13 15:00:00 TS 27.8146 -80.7802 main 0 0 _____________P -1 27.8146 -80.7802 TS 52 7 288
1862255N26286 1862 21 NA NA NOT_NAMED 1862-09-13 18:00:00 TS 27.9000 -81.1000 main 0 0 _____________O -1 27.9000 -81.1000 TS 50 6 283
1862255N26286 1862 21 NA NA NOT_NAMED 1862-09-13 21:00:00 TS 27.9499 -81.4502 main 0 0 _____________P -1 27.9499 -81.4502 TS 47 6 279
1862255N26286 1862 21 NA NA NOT_NAMED 1862-09-14 00:00:00 TS 28.0000 -81.8000 main 0 0 _____________O -1 28.0000 -81.8000 TS 45 6 284
1862255N26286 1862 21 NA NA NOT_NAMED 1862-09-14 03:00:00 TS 28.0999 -82.1499 main 0 0 _____________P -1 28.0999 -82.1499 TS 47 6 288
1862255N26286 1862 21 NA NA NOT_NAMED 1862-09-14 06:00:00 TS 28.2000 -82.5000 main 0 0 _____________O -1 28.2000 -82.5000 TS 50 6 282
1862255N26286 1862 21 NA GM NOT_NAMED 1862-09-14 09:00:00 TS 28.2274 -82.8429 main 9 9 _____________P -1 28.2274 -82.8429 TS 52 6 279
1862255N26286 1862 21 NA GM NOT_NAMED 1862-09-14 12:00:00 TS 28.3000 -83.2000 main 45 45 _____________O -1 28.3000 -83.2000 TS 55 7 293
1862255N26286 1862 21 NA GM NOT_NAMED 1862-09-14 15:00:00 TS 28.5124 -83.5924 main 90 87 _____________P -1 28.5124 -83.5924 TS 57 9 305
1862255N26286 1862 21 NA GM NOT_NAMED 1862-09-14 18:00:00 TS 28.8000 -84.0000 main 97 82 _____________O -1 28.8000 -84.0000 TS 60 9 309
1862255N26286 1862 21 NA GM NOT_NAMED 1862-09-14 21:00:00 TS 29.0924 -84.4076 main 82 34 _____________P -1 29.0924 -84.4076 TS 60 9 311
1862255N26286 1862 21 NA GM NOT_NAMED 1862-09-15 00:00:00 TS 29.4000 -84.8000 main 34 0 _____________O -1 29.4000 -84.8000 TS 60 9 314
1862255N26286 1862 21 NA GM NOT_NAMED 1862-09-15 03:00:00 TS 29.7073 -85.1503 main 0 0 _____________P -1 29.7073 -85.1503 TS 57 9 315
1862255N26286 1862 21 NA GM NOT_NAMED 1862-09-15 06:00:00 TS 30.0000 -85.5000 main 0 0 _____________O -1 30.0000 -85.5000 TS 55 9 311
1862255N26286 1862 21 NA GM NOT_NAMED 1862-09-15 09:00:00 TS 30.2650 -85.9001 main 0 0 _____________P -1 30.2650 -85.9001 TS 50 9 306
1862255N26286 1862 21 NA GM NOT_NAMED 1862-09-15 12:00:00 TS 30.5000 -86.3000 main 0 0 _____________O -1 30.5000 -86.3000 TS 45 8 304
1862255N26286 1862 21 NA NA NOT_NAMED 1862-09-15 15:00:00 TS 30.6998 -86.6504 main 0 0 _____________P -1 30.6998 -86.6504 TS 40 7 304
1862255N26286 1862 21 NA NA NOT_NAMED 1862-09-15 18:00:00 TS 30.9000 -87.0000 main 0 0 _____________O -1 30.9000 -87.0000 TS 35 8 305
1862255N26286 1862 21 NA NA NOT_NAMED 1862-09-15 21:00:00 TS 31.1499 -87.3925 main 0 0 _____________P -1 31.1499 -87.3925 TS 32 8 306
1862255N26286 1862 21 NA NA NOT_NAMED 1862-09-16 00:00:00 TS 31.4000 -87.8000 main 0 0 _____________O -1 31.4000 -87.8000 TD 30 8 303
1862255N26286 1862 21 NA NA NOT_NAMED 1862-09-16 03:00:00 TS 31.5999 -88.2004 main 0 0 _____________P -1 31.5999 -88.2004 TD 30 8 300
1862255N26286 1862 21 NA NA NOT_NAMED 1862-09-16 06:00:00 TS 31.8000 -88.6000 main 0 0 _____________O -1 31.8000 -88.6000 TD 30 8 303
1862255N26286 1862 21 NA NA NOT_NAMED 1862-09-16 09:00:00 TS 32.0576 -89.0223 main 0 0 _____________P -1 32.0576 -89.0223 TD 30 8 306
1862255N26286 1862 21 NA NA NOT_NAMED 1862-09-16 12:00:00 TS 32.3000 -89.4000 main 0 0 _____________O -1 32.3000 -89.4000 TD 30 7 306
1862255N26286 1862 21 NA NA NOT_NAMED 1862-09-16 15:00:00 TS 32.4498 -89.6730 main 0 0 _____________P -1 32.4498 -89.6730 TD 30 5 305
1862255N26286 1862 21 NA NA NOT_NAMED 1862-09-16 18:00:00 TS 32.6000 -89.9000 main 0 0 _____________O -1 32.6000 -89.9000 TD 30 6 312
1862255N26286 1862 21 NA NA NOT_NAMED 1862-09-16 21:00:00 TS 32.8351 -90.1798 main 0 0 _____________P -1 32.8351 -90.1798 TD 30 7 320
1862255N26286 1862 21 NA NA NOT_NAMED 1862-09-17 00:00:00 TS 33.1000 -90.4000 main 0 0 _____________O -1 33.1000 -90.4000 TD 30 6 334
1862255N26286 1862 21 NA NA NOT_NAMED 1862-09-17 03:00:00 TS 33.3499 -90.4803 main 0 0 _____________P -1 33.3499 -90.4803 TD 30 5 351
1862255N26286 1862 21 NA NA NOT_NAMED 1862-09-17 06:00:00 TS 33.6000 -90.5000 main 0 0 _____________O -1 33.6000 -90.5000 TD 30 5 353
1862255N26286 1862 21 NA NA NOT_NAMED 1862-09-17 09:00:00 TS 33.8500 -90.5500 main 0 0 _____________P -1 33.8500 -90.5500 TD 30 5 351
1862255N26286 1862 21 NA NA NOT_NAMED 1862-09-17 12:00:00 TS 34.1000 -90.6000 main 0 0 _____________O -1 34.1000 -90.6000 TD 30 5 348
1862255N26286 1862 21 NA NA NOT_NAMED 1862-09-17 15:00:00 TS 34.3425 -90.6797 main 0 0 _____________P -1 34.3425 -90.6797 TD 30 5 351
1862255N26286 1862 21 NA NA NOT_NAMED 1862-09-17 18:00:00 TS 34.6000 -90.7000 main 0 0 _____________O -1 34.6000 -90.7000 TD 30 6 8
1862255N26286 1862 21 NA NA NOT_NAMED 1862-09-17 21:00:00 TS 34.8901 -90.5905 main 0 0 _____________P -1 34.8901 -90.5905 TD 30 7 22
1862255N26286 1862 21 NA NA NOT_NAMED 1862-09-18 00:00:00 TS 35.2000 -90.4000 main 0 _____________O -1 35.2000 -90.4000 TD 30 7 26

IBTrACS Databaseについて

本データベースは、米国NOAAが公開する1842年以降の世界の熱帯低気圧のベストトラックデータアーカイブInternational Best Track Archive for Climate Stewardship (IBTrACS)を、ウェブで閲覧しやすい形式に変換したものです。

最終更新日:2021-10-19